Time,TemperatureF,DewpointF,PressureIn,WindDirection,WindDirectionDegrees,WindSpeedMPH,WindSpeedGustMPH,Humidity,HourlyPrecipIn,Conditions,Clouds,dailyrainin,SoftwareType,DateUTC
2013-07-01 00:01:00,70.0,66.0,29.81,ESE,104,0.0,-999.0,88,-99.99,,,-99.99,,2013-07-01 04:01:00,
2013-07-01 00:11:00,70.0,66.0,29.81,ESE,104,0.0,-999.0,88,-99.99,,,-99.99,,2013-07-01 04:11:00,
2013-07-01 00:22:00,70.0,66.0,29.81,ESE,104,0.0,-999.0,88,-99.99,,,-99.99,,2013-07-01 04:22:00,
2013-07-01 00:32:00,70.0,66.0,29.81,ESE,104,0.0,-999.0,88,-99.99,,,-99.99,,2013-07-01 04:32:00,
2013-07-01 00:43:00,70.0,66.0,29.81,ESE,104,0.0,-999.0,88,-99.99,,,-99.99,,2013-07-01 04:43:00,
2013-07-01 00:53:00,69.0,66.0,29.82,ESE,103,0.0,-999.0,90,-99.99,,,-99.99,,2013-07-01 04:53:00,
2013-07-01 01:02:00,68.0,65.0,29.82,ESE,104,0.0,-999.0,90,-99.99,,,-99.99,,2013-07-01 05:02:00,
2013-07-01 01:11:00,68.0,65.0,29.82,ESE,104,0.0,-999.0,90,-99.99,,,-99.99,,2013-07-01 05:11:00,
2013-07-01 01:22:00,68.0,65.0,29.82,ESE,104,0.0,-999.0,90,-99.99,,,-99.99,,2013-07-01 05:22:00,
2013-07-01 01:33:00,68.0,65.0,29.82,ESE,103,0.0,-999.0,91,-99.99,,,-99.99,,2013-07-01 05:33:00,
2013-07-01 01:42:00,68.0,65.0,29.81,ESE,104,0.0,-999.0,91,-99.99,,,-99.99,,2013-07-01 05:42:00,
2013-07-01 01:52:00,68.0,65.0,29.81,ESE,104,0.0,-999.0,91,-99.99,,,-99.99,,2013-07-01 05:52:00,
2013-07-01 02:02:00,67.0,64.0,29.80,ESE,104,0.0,-999.0,90,-99.99,,,-99.99,,2013-07-01 06:02:00,
2013-07-01 02:12:00,67.0,64.0,29.80,ESE,104,0.0,-999.0,90,-99.99,,,-99.99,,2013-07-01 06:12:00,
2013-07-01 02:24:00,67.0,64.0,29.80,ESE,104,0.0,-999.0,90,-99.99,,,-99.99,,2013-07-01 06:24:00,
2013-07-01 02:33:00,67.0,64.0,29.80,ESE,104,0.0,-999.0,91,-99.99,,,-99.99,,2013-07-01 06:33:00,
2013-07-01 02:43:00,66.0,64.0,29.80,ESE,104,0.0,-999.0,92,-99.99,,,-99.99,,2013-07-01 06:43:00,
2013-07-01 02:53:00,66.0,64.0,29.80,ESE,104,0.0,-999.0,92,-99.99,,,-99.99,,2013-07-01 06:53:00,
2013-07-01 03:01:00,66.0,64.0,29.80,ESE,104,0.0,-999.0,92,-99.99,,,-99.99,,2013-07-01 07:01:00,
2013-07-01 03:11:00,66.0,64.0,29.80,ESE,104,0.0,-999.0,92,-99.99,,,-99.99,,2013-07-01 07:11:00,
2013-07-01 03:22:00,66.0,64.0,29.80,ESE,104,0.0,-999.0,92,-99.99,,,-99.99,,2013-07-01 07:22:00,
2013-07-01 03:33:00,66.0,64.0,29.80,ESE,104,0.0,-999.0,93,-99.99,,,-99.99,,2013-07-01 07:33:00,
2013-07-01 03:43:00,65.0,63.0,29.79,ESE,104,0.0,-999.0,93,-99.99,,,-99.99,,2013-07-01 07:43:00,
2013-07-01 03:53:00,65.0,63.0,29.79,ESE,104,0.0,-999.0,93,-99.99,,,-99.99,,2013-07-01 07:53:00,
2013-07-01 04:01:00,65.0,63.0,29.80,ESE,104,0.0,-999.0,94,-99.99,,,-99.99,,2013-07-01 08:01:00,
2013-07-01 04:11:00,65.0,63.0,29.80,ESE,104,0.0,-999.0,93,-99.99,,,-99.99,,2013-07-01 08:11:00,
2013-07-01 04:22:00,65.0,63.0,29.80,ESE,104,0.0,-999.0,93,-99.99,,,-99.99,,2013-07-01 08:22:00,
2013-07-01 04:33:00,65.0,63.0,29.80,ESE,104,0.0,-999.0,94,-99.99,,,-99.99,,2013-07-01 08:33:00,
2013-07-01 04:42:00,65.0,63.0,29.81,ESE,104,0.0,-999.0,94,-99.99,,,-99.99,,2013-07-01 08:42:00,
2013-07-01 04:52:00,65.0,63.0,29.81,ESE,104,0.0,-999.0,94,-99.99,,,-99.99,,2013-07-01 08:52:00,
2013-07-01 05:02:00,65.0,63.0,29.82,ESE,104,0.0,-999.0,94,-99.99,,,-99.99,,2013-07-01 09:02:00,
2013-07-01 05:12:00,65.0,63.0,29.82,ESE,104,0.0,-999.0,94,-99.99,,,-99.99,,2013-07-01 09:12:00,
2013-07-01 05:22:00,65.0,63.0,29.83,ESE,104,0.0,-999.0,94,-99.99,,,-99.99,,2013-07-01 09:22:00,
2013-07-01 05:34:00,65.0,63.0,29.83,ESE,104,0.0,-999.0,94,-99.99,,,-99.99,,2013-07-01 09:34:00,
2013-07-01 05:43:00,64.0,62.0,29.83,ESE,104,0.0,-999.0,94,-99.99,,,-99.99,,2013-07-01 09:43:00,
2013-07-01 05:53:00,65.0,63.0,29.83,ESE,104,0.0,-999.0,94,-99.99,,,-99.99,,2013-07-01 09:53:00,
2013-07-01 06:03:00,65.0,63.0,29.83,ESE,104,0.0,-999.0,94,-99.99,,,-99.99,,2013-07-01 10:03:00,
2013-07-01 06:11:00,65.0,64.0,29.83,ESE,104,1.0,-999.0,95,-99.99,,,-99.99,,2013-07-01 10:11:00,
2013-07-01 06:22:00,65.0,64.0,29.83,ESE,104,1.0,-999.0,95,-99.99,,,-99.99,,2013-07-01 10:22:00,
2013-07-01 06:33:00,65.0,64.0,29.83,ESE,103,0.0,-999.0,95,-99.99,,,-99.99,,2013-07-01 10:33:00,
2013-07-01 06:43:00,64.0,63.0,29.83,East,94,0.0,-999.0,95,-99.99,,,-99.99,,2013-07-01 10:43:00,
2013-07-01 06:52:00,64.0,63.0,29.83,East,94,0.0,-999.0,95,-99.99,,,-99.99,,2013-07-01 10:52:00,
2013-07-01 07:02:00,64.0,63.0,29.83,East,94,0.0,-999.0,95,-99.99,,,-99.99,,2013-07-01 11:02:00,
2013-07-01 07:11:00,64.0,63.0,29.83,East,94,0.0,-999.0,95,-99.99,,,-99.99,,2013-07-01 11:11:00,
2013-07-01 07:22:00,64.0,63.0,29.83,East,94,0.0,-999.0,95,-99.99,,,-99.99,,2013-07-01 11:22:00,
2013-07-01 07:33:00,65.0,64.0,29.83,East,94,0.0,-999.0,95,-99.99,,,-99.99,,2013-07-01 11:33:00,
2013-07-01 07:43:00,66.0,65.0,29.84,East,94,0.0,-999.0,95,-99.99,,,-99.99,,2013-07-01 11:43:00,
2013-07-01 07:52:00,66.0,65.0,29.84,East,94,0.0,-999.0,95,-99.99,,,-99.99,,2013-07-01 11:52:00,
2013-07-01 08:01:00,66.0,65.0,29.84,East,94,0.0,-999.0,95,-99.99,,,-99.99,,2013-07-01 12:01:00,
2013-07-01 08:11:00,66.0,65.0,29.84,East,94,0.0,-999.0,95,-99.99,,,-99.99,,2013-07-01 12:11:00,
2013-07-01 08:22:00,66.0,65.0,29.84,East,94,0.0,-999.0,95,-99.99,,,-99.99,,2013-07-01 12:22:00,
2013-07-01 08:33:00,67.0,66.0,29.84,East,94,0.0,-999.0,96,-99.99,,,-99.99,,2013-07-01 12:33:00,
2013-07-01 08:43:00,68.0,67.0,29.84,East,94,0.0,-999.0,96,-99.99,,,-99.99,,2013-07-01 12:43:00,
2013-07-01 08:53:00,68.0,67.0,29.84,East,94,0.0,-999.0,96,-99.99,,,-99.99,,2013-07-01 12:53:00,
2013-07-01 09:02:00,69.0,67.0,29.85,East,88,0.0,-999.0,93,-99.99,,,-99.99,,2013-07-01 13:02:00,
2013-07-01 09:12:00,69.0,67.0,29.85,East,88,0.0,-999.0,93,-99.99,,,-99.99,,2013-07-01 13:12:00,
2013-07-01 09:23:00,69.0,67.0,29.85,East,88,0.0,-999.0,93,-99.99,,,-99.99,,2013-07-01 13:23:00,
2013-07-01 09:33:00,70.0,67.0,29.86,East,88,0.0,-999.0,90,-99.99,,,-99.99,,2013-07-01 13:33:00,
2013-07-01 09:53:00,73.0,69.0,29.86,East,88,0.0,-999.0,86,-99.99,,,-99.99,,2013-07-01 13:53:00,
2013-07-01 10:01:00,74.0,68.0,29.86,East,88,0.0,-999.0,82,-99.99,,,-99.99,,2013-07-01 14:01:00,
2013-07-01 10:22:00,74.0,68.0,29.86,East,88,0.0,-999.0,81,-99.99,,,-99.99,,2013-07-01 14:22:00,
2013-07-01 10:34:00,76.0,69.0,29.85,SSW,203,1.0,-999.0,78,-99.99,,,-99.99,,2013-07-01 14:34:00,
2013-07-01 10:43:00,76.0,67.0,29.85,SSW,199,0.0,-999.0,75,-99.99,,,-99.99,,2013-07-01 14:43:00,
2013-07-01 10:52:00,76.0,67.0,29.85,SSW,199,0.0,-999.0,75,-99.99,,,-99.99,,2013-07-01 14:52:00,
2013-07-01 11:23:00,78.0,70.0,29.86,SSW,196,0.0,-999.0,76,-99.99,,,-99.99,,2013-07-01 15:23:00,
2013-07-01 11:34:00,80.0,70.0,29.86,SSW,200,0.0,-999.0,72,-99.99,,,-99.99,,2013-07-01 15:34:00,
2013-07-01 11:43:00,80.0,69.0,29.86,WSW,251,1.0,-999.0,70,-99.99,,,-99.99,,2013-07-01 15:43:00,
2013-07-01 11:52:00,80.0,69.0,29.86,WSW,251,1.0,-999.0,70,-99.99,,,-99.99,,2013-07-01 15:52:00,
2013-07-01 12:22:00,79.0,69.0,29.87,West,281,3.0,-999.0,71,-99.99,,,-99.99,,2013-07-01 16:22:00,
2013-07-01 12:33:00,79.0,67.0,29.86,West,279,2.0,-999.0,67,-99.99,,,-99.99,,2013-07-01 16:33:00,
2013-07-01 12:53:00,81.0,69.0,29.86,West,279,1.0,-999.0,66,-99.99,,,-99.99,,2013-07-01 16:53:00,
2013-07-01 13:23:00,81.0,69.0,29.85,WNW,290,3.0,-999.0,67,-99.99,,,-99.99,,2013-07-01 17:23:00,
2013-07-01 13:34:00,83.0,67.0,29.85,SW,227,4.0,-999.0,59,-99.99,,,-99.99,,2013-07-01 17:34:00,
2013-07-01 13:53:00,80.0,68.0,29.85,West,277,4.0,-999.0,66,-99.99,,,-99.99,,2013-07-01 17:53:00,
2013-07-01 14:11:00,77.0,68.0,29.85,NW,317,7.0,-999.0,75,-99.99,,,-99.99,,2013-07-01 18:11:00,
2013-07-01 14:22:00,76.0,68.0,29.86,NW,304,7.0,-999.0,76,-99.99,,,-99.99,,2013-07-01 18:22:00,
2013-07-01 14:33:00,77.0,69.0,29.84,NNE,24,5.0,-999.0,77,-99.99,,,-99.99,,2013-07-01 18:33:00,
2013-07-01 14:43:00,77.0,69.0,29.84,NNE,24,5.0,-999.0,77,-99.99,,,-99.99,,2013-07-01 18:43:00,
2013-07-01 14:53:00,79.0,68.0,29.83,NNW,346,4.0,-999.0,69,-99.99,,,-99.99,,2013-07-01 18:53:00,
2013-07-01 15:02:00,79.0,69.0,29.83,NW,305,6.0,-999.0,71,-99.99,,,-99.99,,2013-07-01 19:02:00,
2013-07-01 15:22:00,79.0,70.0,29.83,NW,316,5.0,-999.0,74,-99.99,,,-99.99,,2013-07-01 19:22:00,
2013-07-01 15:33:00,78.0,69.0,29.83,NNW,344,3.0,-999.0,74,-99.99,,,-99.99,,2013-07-01 19:33:00,
2013-07-01 15:44:00,77.0,68.0,29.83,NNE,26,3.0,-999.0,74,-99.99,,,-99.99,,2013-07-01 19:44:00,
2013-07-01 15:52:00,77.0,68.0,29.83,NNE,26,3.0,-999.0,74,-99.99,,,-99.99,,2013-07-01 19:52:00,
2013-07-01 16:11:00,77.0,68.0,29.85,North,351,1.0,-999.0,75,-99.99,,,-99.99,,2013-07-01 20:11:00,
2013-07-01 16:22:00,77.0,68.0,29.84,North,355,1.0,-999.0,75,-99.99,,,-99.99,,2013-07-01 20:22:00,
2013-07-01 16:43:00,74.0,68.0,29.83,NNE,31,1.0,-999.0,82,-99.99,,,-99.99,,2013-07-01 20:43:00,
2013-07-01 16:52:00,74.0,68.0,29.83,NNE,31,1.0,-999.0,82,-99.99,,,-99.99,,2013-07-01 20:52:00,
2013-07-01 17:24:00,73.0,68.0,29.85,NE,53,1.0,-999.0,85,-99.99,,,-99.99,,2013-07-01 21:24:00,
2013-07-01 17:34:00,72.0,69.0,29.85,South,171,3.0,-999.0,89,-99.99,,,-99.99,,2013-07-01 21:34:00,
2013-07-01 17:43:00,71.0,68.0,29.88,SSW,198,1.0,-999.0,91,-99.99,,,-99.99,,2013-07-01 21:43:00,
2013-07-01 17:53:00,71.0,68.0,29.88,SSW,198,1.0,-999.0,91,-99.99,,,-99.99,,2013-07-01 21:53:00,
2013-07-01 18:01:00,71.0,68.0,29.88,South,173,1.0,-999.0,90,-99.99,,,-99.99,,2013-07-01 22:01:00,
2013-07-01 18:11:00,71.0,68.0,29.88,South,173,1.0,-999.0,90,-99.99,,,-99.99,,2013-07-01 22:11:00,
2013-07-01 18:24:00,71.0,68.0,29.88,South,173,1.0,-999.0,91,-99.99,,,-99.99,,2013-07-01 22:24:00,
2013-07-01 18:43:00,68.0,66.0,29.88,ESE,123,1.0,-999.0,92,-99.99,,,-99.99,,2013-07-01 22:43:00,
2013-07-01 18:53:00,68.0,66.0,29.88,ESE,123,1.0,-999.0,92,-99.99,,,-99.99,,2013-07-01 22:53:00,
2013-07-01 19:01:00,69.0,67.0,29.87,SE,129,2.0,-999.0,92,-99.99,,,-99.99,,2013-07-01 23:01:00,
2013-07-01 19:11:00,69.0,67.0,29.87,ESE,119,1.0,-999.0,93,-99.99,,,-99.99,,2013-07-01 23:11:00,
2013-07-01 19:22:00,69.0,67.0,29.87,ESE,119,1.0,-999.0,93,-99.99,,,-99.99,,2013-07-01 23:22:00,
2013-07-01 19:33:00,70.0,67.0,29.89,NE,56,2.0,-999.0,89,-99.99,,,-99.99,,2013-07-01 23:33:00,
2013-07-01 19:44:00,69.0,66.0,29.91,NE,56,0.0,-999.0,90,-99.99,,,-99.99,,2013-07-01 23:44:00,
2013-07-01 19:53:00,69.0,66.0,29.91,NE,56,0.0,-999.0,90,-99.99,,,-99.99,,2013-07-01 23:53:00,
2013-07-01 20:01:00,69.0,66.0,29.92,NE,56,0.0,-999.0,91,-99.99,,,-99.99,,2013-07-02 00:01:00,
2013-07-01 20:12:00,69.0,66.0,29.92,NE,56,0.0,-999.0,91,-99.99,,,-99.99,,2013-07-02 00:12:00,
2013-07-01 20:22:00,69.0,66.0,29.92,NE,56,0.0,-999.0,91,-99.99,,,-99.99,,2013-07-02 00:22:00,
2013-07-01 20:34:00,68.0,65.0,29.94,NW,313,4.0,-999.0,89,-99.99,,,-99.99,,2013-07-02 00:34:00,
2013-07-01 20:43:00,66.0,62.0,29.93,North,349,1.0,-999.0,87,-99.99,,,-99.99,,2013-07-02 00:43:00,
2013-07-01 20:53:00,66.0,62.0,29.93,North,349,1.0,-999.0,87,-99.99,,,-99.99,,2013-07-02 00:53:00,
2013-07-01 21:01:00,66.0,63.0,29.91,North,349,0.0,-999.0,90,-99.99,,,-99.99,,2013-07-02 01:01:00,
2013-07-01 21:11:00,66.0,63.0,29.91,North,349,0.0,-999.0,90,-99.99,,,-99.99,,2013-07-02 01:11:00,
2013-07-01 21:22:00,66.0,63.0,29.91,North,349,0.0,-999.0,90,-99.99,,,-99.99,,2013-07-02 01:22:00,
2013-07-01 21:33:00,64.0,62.0,29.91,North,349,0.0,-999.0,92,-99.99,,,-99.99,,2013-07-02 01:33:00,
2013-07-01 21:53:00,64.0,62.0,29.91,North,349,0.0,-999.0,93,-99.99,,,-99.99,,2013-07-02 01:53:00,
2013-07-01 22:22:00,64.0,62.0,29.91,North,349,0.0,-999.0,93,-99.99,,,-99.99,,2013-07-02 02:22:00,
2013-07-01 22:34:00,63.0,61.0,29.91,North,349,0.0,-999.0,93,-99.99,,,-99.99,,2013-07-02 02:34:00,
2013-07-01 22:53:00,63.0,61.0,29.90,North,349,0.0,-999.0,94,-99.99,,,-99.99,,2013-07-02 02:53:00,
2013-07-01 23:12:00,63.0,62.0,29.91,North,350,0.0,-999.0,95,-99.99,,,-99.99,,2013-07-02 03:12:00,
2013-07-01 23:24:00,63.0,62.0,29.91,North,350,0.0,-999.0,95,-99.99,,,-99.99,,2013-07-02 03:24:00,
2013-07-01 23:43:00,64.0,63.0,29.91,North,350,0.0,-999.0,95,-99.99,,,-99.99,,2013-07-02 03:43:00,
2013-07-01 23:53:00,64.0,63.0,29.91,North,355,0.0,-999.0,95,-99.99,,,-99.99,,2013-07-02 03:53:00,